sensor_id;sensor_type;location;lat;lon;timestamp;P1;durP1;ratioP1;P2;durP2;ratioP2
3587;SDS011;1808;53.596;9.972;2023-03-22T00:01:17;21.77;;;12.52;;
3587;SDS011;1808;53.596;9.972;2023-03-22T00:03:44;18.20;;;11.25;;
3587;SDS011;1808;53.596;9.972;2023-03-22T00:06:12;19.33;;;11.48;;
3587;SDS011;1808;53.596;9.972;2023-03-22T00:08:39;18.45;;;11.43;;
3587;SDS011;1808;53.596;9.972;2023-03-22T00:11:05;13.68;;;10.13;;
3587;SDS011;1808;53.596;9.972;2023-03-22T00:13:32;18.08;;;12.10;;
3587;SDS011;1808;53.596;9.972;2023-03-22T00:15:59;19.90;;;11.88;;
3587;SDS011;1808;53.596;9.972;2023-03-22T00:18:27;17.13;;;10.75;;
3587;SDS011;1808;53.596;9.972;2023-03-22T00:20:54;19.65;;;12.15;;
3587;SDS011;1808;53.596;9.972;2023-03-22T00:23:22;18.20;;;12.63;;
3587;SDS011;1808;53.596;9.972;2023-03-22T00:25:49;17.20;;;11.02;;
3587;SDS011;1808;53.596;9.972;2023-03-22T00:28:16;19.27;;;12.10;;
3587;SDS011;1808;53.596;9.972;2023-03-22T00:30:42;17.45;;;12.30;;
3587;SDS011;1808;53.596;9.972;2023-03-22T00:35:46;17.55;;;11.30;;
3587;SDS011;1808;53.596;9.972;2023-03-22T00:38:12;18.10;;;11.63;;
3587;SDS011;1808;53.596;9.972;2023-03-22T00:40:40;24.73;;;14.65;;
3587;SDS011;1808;53.596;9.972;2023-03-22T00:43:06;18.25;;;12.13;;
3587;SDS011;1808;53.596;9.972;2023-03-22T00:45:33;18.15;;;12.43;;
3587;SDS011;1808;53.596;9.972;2023-03-22T00:48:00;21.00;;;15.40;;
3587;SDS011;1808;53.596;9.972;2023-03-22T00:50:26;19.27;;;12.57;;
3587;SDS011;1808;53.596;9.972;2023-03-22T00:52:52;19.52;;;12.68;;
3587;SDS011;1808;53.596;9.972;2023-03-22T00:55:19;20.02;;;12.07;;
3587;SDS011;1808;53.596;9.972;2023-03-22T00:57:46;18.48;;;11.88;;
3587;SDS011;1808;53.596;9.972;2023-03-22T01:00:13;19.15;;;12.90;;
3587;SDS011;1808;53.596;9.972;2023-03-22T01:02:40;22.10;;;13.65;;
3587;SDS011;1808;53.596;9.972;2023-03-22T01:05:07;21.65;;;13.60;;
3587;SDS011;1808;53.596;9.972;2023-03-22T01:07:34;24.98;;;14.40;;
3587;SDS011;1808;53.596;9.972;2023-03-22T01:10:02;21.42;;;13.60;;
3587;SDS011;1808;53.596;9.972;2023-03-22T01:12:28;24.58;;;13.60;;
3587;SDS011;1808;53.596;9.972;2023-03-22T01:14:56;18.40;;;12.02;;
3587;SDS011;1808;53.596;9.972;2023-03-22T01:17:22;19.52;;;13.45;;
3587;SDS011;1808;53.596;9.972;2023-03-22T01:19:49;20.60;;;13.77;;
3587;SDS011;1808;53.596;9.972;2023-03-22T01:22:15;20.02;;;14.40;;
3587;SDS011;1808;53.596;9.972;2023-03-22T01:24:41;23.42;;;14.57;;
3587;SDS011;1808;53.596;9.972;2023-03-22T01:27:07;22.63;;;14.65;;
3587;SDS011;1808;53.596;9.972;2023-03-22T01:29:34;21.27;;;13.65;;
3587;SDS011;1808;53.596;9.972;2023-03-22T01:32:01;22.50;;;14.75;;
3587;SDS011;1808;53.596;9.972;2023-03-22T01:34:28;26.27;;;15.05;;
3587;SDS011;1808;53.596;9.972;2023-03-22T01:36:55;22.88;;;15.07;;
3587;SDS011;1808;53.596;9.972;2023-03-22T01:39:21;22.13;;;14.60;;
3587;SDS011;1808;53.596;9.972;2023-03-22T01:41:47;20.05;;;14.00;;
3587;SDS011;1808;53.596;9.972;2023-03-22T01:44:14;22.60;;;14.40;;
3587;SDS011;1808;53.596;9.972;2023-03-22T01:46:42;24.85;;;14.70;;
3587;SDS011;1808;53.596;9.972;2023-03-22T01:49:10;22.58;;;14.75;;
3587;SDS011;1808;53.596;9.972;2023-03-22T01:51:38;21.65;;;14.80;;
3587;SDS011;1808;53.596;9.972;2023-03-22T01:54:06;21.20;;;14.77;;
3587;SDS011;1808;53.596;9.972;2023-03-22T01:56:35;25.45;;;14.40;;
3587;SDS011;1808;53.596;9.972;2023-03-22T01:59:01;26.98;;;14.80;;
3587;SDS011;1808;53.596;9.972;2023-03-22T02:01:28;25.63;;;15.68;;
3587;SDS011;1808;53.596;9.972;2023-03-22T02:03:56;26.08;;;16.05;;
3587;SDS011;1808;53.596;9.972;2023-03-22T02:06:25;24.13;;;14.63;;
3587;SDS011;1808;53.596;9.972;2023-03-22T02:08:53;22.98;;;15.15;;
3587;SDS011;1808;53.596;9.972;2023-03-22T02:11:24;21.75;;;15.68;;
3587;SDS011;1808;53.596;9.972;2023-03-22T02:13:57;23.75;;;17.58;;
3587;SDS011;1808;53.596;9.972;2023-03-22T02:16:28;22.67;;;14.43;;
3587;SDS011;1808;53.596;9.972;2023-03-22T02:19:09;20.17;;;13.40;;
3587;SDS011;1808;53.596;9.972;2023-03-22T02:27:27;20.17;;;13.50;;
3587;SDS011;1808;53.596;9.972;2023-03-22T02:30:06;22.23;;;13.82;;
3587;SDS011;1808;53.596;9.972;2023-03-22T02:32:46;20.80;;;14.25;;
3587;SDS011;1808;53.596;9.972;2023-03-22T02:35:21;24.88;;;14.60;;
3587;SDS011;1808;53.596;9.972;2023-03-22T02:38:07;21.90;;;14.45;;
3587;SDS011;1808;53.596;9.972;2023-03-22T02:40:41;23.92;;;16.88;;
3587;SDS011;1808;53.596;9.972;2023-03-22T02:43:12;24.35;;;12.80;;
3587;SDS011;1808;53.596;9.972;2023-03-22T02:45:41;20.98;;;13.02;;
3587;SDS011;1808;53.596;9.972;2023-03-22T02:48:11;22.90;;;14.88;;
3587;SDS011;1808;53.596;9.972;2023-03-22T02:50:40;19.60;;;13.88;;
3587;SDS011;1808;53.596;9.972;2023-03-22T02:53:09;27.23;;;14.50;;
3587;SDS011;1808;53.596;9.972;2023-03-22T02:55:42;23.05;;;13.18;;
3587;SDS011;1808;53.596;9.972;2023-03-22T02:58:10;23.92;;;13.52;;
3587;SDS011;1808;53.596;9.972;2023-03-22T03:00:37;21.00;;;13.40;;
3587;SDS011;1808;53.596;9.972;2023-03-22T03:03:05;23.90;;;13.02;;
3587;SDS011;1808;53.596;9.972;2023-03-22T03:05:36;24.08;;;13.23;;
3587;SDS011;1808;53.596;9.972;2023-03-22T03:08:03;22.05;;;15.25;;
3587;SDS011;1808;53.596;9.972;2023-03-22T03:10:29;19.85;;;14.98;;
3587;SDS011;1808;53.596;9.972;2023-03-22T03:12:58;18.95;;;13.73;;
3587;SDS011;1808;53.596;9.972;2023-03-22T03:15:24;21.42;;;14.52;;
3587;SDS011;1808;53.596;9.972;2023-03-22T03:20:37;19.70;;;12.75;;
3587;SDS011;1808;53.596;9.972;2023-03-22T03:23:09;21.05;;;12.60;;
3587;SDS011;1808;53.596;9.972;2023-03-22T03:25:38;18.63;;;13.35;;
3587;SDS011;1808;53.596;9.972;2023-03-22T03:28:09;19.27;;;13.10;;
3587;SDS011;1808;53.596;9.972;2023-03-22T03:30:37;21.88;;;12.93;;
3587;SDS011;1808;53.596;9.972;2023-03-22T03:33:05;22.85;;;13.27;;
3587;SDS011;1808;53.596;9.972;2023-03-22T03:35:35;18.35;;;11.80;;
3587;SDS011;1808;53.596;9.972;2023-03-22T03:38:03;19.58;;;13.40;;
3587;SDS011;1808;53.596;9.972;2023-03-22T03:40:33;17.38;;;12.43;;
3587;SDS011;1808;53.596;9.972;2023-03-22T03:43:01;20.08;;;11.65;;
3587;SDS011;1808;53.596;9.972;2023-03-22T03:45:28;23.25;;;14.43;;
3587;SDS011;1808;53.596;9.972;2023-03-22T03:47:56;19.30;;;12.50;;
3587;SDS011;1808;53.596;9.972;2023-03-22T03:50:23;19.42;;;12.25;;
3587;SDS011;1808;53.596;9.972;2023-03-22T03:52:50;18.52;;;12.20;;
3587;SDS011;1808;53.596;9.972;2023-03-22T03:55:16;18.40;;;11.50;;
3587;SDS011;1808;53.596;9.972;2023-03-22T03:57:43;19.35;;;13.20;;
3587;SDS011;1808;53.596;9.972;2023-03-22T04:00:09;21.75;;;12.50;;
3587;SDS011;1808;53.596;9.972;2023-03-22T04:02:39;16.77;;;10.88;;
3587;SDS011;1808;53.596;9.972;2023-03-22T04:05:06;18.88;;;12.88;;
3587;SDS011;1808;53.596;9.972;2023-03-22T04:07:32;19.38;;;11.73;;
3587;SDS011;1808;53.596;9.972;2023-03-22T04:09:59;18.42;;;11.48;;
3587;SDS011;1808;53.596;9.972;2023-03-22T04:12:25;16.67;;;11.07;;
3587;SDS011;1808;53.596;9.972;2023-03-22T04:14:51;20.77;;;11.23;;
3587;SDS011;1808;53.596;9.972;2023-03-22T04:17:19;20.13;;;11.25;;
3587;SDS011;1808;53.596;9.972;2023-03-22T04:19:47;22.40;;;10.65;;
3587;SDS011;1808;53.596;9.972;2023-03-22T04:22:13;18.52;;;12.00;;
3587;SDS011;1808;53.596;9.972;2023-03-22T04:24:42;18.67;;;12.25;;
3587;SDS011;1808;53.596;9.972;2023-03-22T04:27:14;17.35;;;10.60;;
3587;SDS011;1808;53.596;9.972;2023-03-22T04:29:40;17.33;;;10.90;;
3587;SDS011;1808;53.596;9.972;2023-03-22T04:32:12;15.32;;;9.88;;
3587;SDS011;1808;53.596;9.972;2023-03-22T04:34:40;16.95;;;10.32;;
3587;SDS011;1808;53.596;9.972;2023-03-22T04:37:08;15.25;;;9.63;;
3587;SDS011;1808;53.596;9.972;2023-03-22T04:39:34;16.02;;;11.02;;
3587;SDS011;1808;53.596;9.972;2023-03-22T04:42:00;20.20;;;10.70;;
3587;SDS011;1808;53.596;9.972;2023-03-22T04:44:26;16.75;;;10.98;;
3587;SDS011;1808;53.596;9.972;2023-03-22T04:46:52;18.65;;;10.45;;
3587;SDS011;1808;53.596;9.972;2023-03-22T04:49:19;16.27;;;9.38;;
3587;SDS011;1808;53.596;9.972;2023-03-22T04:51:46;17.30;;;10.07;;
3587;SDS011;1808;53.596;9.972;2023-03-22T04:54:13;17.73;;;10.60;;
3587;SDS011;1808;53.596;9.972;2023-03-22T04:56:39;15.95;;;10.27;;
3587;SDS011;1808;53.596;9.972;2023-03-22T04:59:05;15.70;;;10.05;;
3587;SDS011;1808;53.596;9.972;2023-03-22T05:01:32;20.15;;;12.25;;
3587;SDS011;1808;53.596;9.972;2023-03-22T05:03:59;17.48;;;10.13;;
3587;SDS011;1808;53.596;9.972;2023-03-22T05:06:25;15.77;;;11.18;;
3587;SDS011;1808;53.596;9.972;2023-03-22T05:08:51;17.88;;;9.75;;
3587;SDS011;1808;53.596;9.972;2023-03-22T05:11:19;16.85;;;10.57;;
3587;SDS011;1808;53.596;9.972;2023-03-22T05:13:45;15.68;;;11.45;;
3587;SDS011;1808;53.596;9.972;2023-03-22T05:16:12;16.35;;;10.15;;
3587;SDS011;1808;53.596;9.972;2023-03-22T05:18:38;17.20;;;10.50;;
3587;SDS011;1808;53.596;9.972;2023-03-22T05:21:10;16.55;;;11.38;;
3587;SDS011;1808;53.596;9.972;2023-03-22T05:23:37;17.77;;;9.25;;
3587;SDS011;1808;53.596;9.972;2023-03-22T05:26:04;13.52;;;8.98;;
3587;SDS011;1808;53.596;9.972;2023-03-22T05:28:33;16.27;;;10.73;;
3587;SDS011;1808;53.596;9.972;2023-03-22T05:30:59;16.77;;;10.30;;
3587;SDS011;1808;53.596;9.972;2023-03-22T05:33:26;14.07;;;9.40;;
3587;SDS011;1808;53.596;9.972;2023-03-22T05:35:53;21.10;;;13.23;;
3587;SDS011;1808;53.596;9.972;2023-03-22T05:38:20;19.65;;;10.15;;
3587;SDS011;1808;53.596;9.972;2023-03-22T05:40:46;16.10;;;10.30;;
3587;SDS011;1808;53.596;9.972;2023-03-22T05:43:13;15.93;;;9.77;;
3587;SDS011;1808;53.596;9.972;2023-03-22T05:45:40;17.98;;;9.65;;
3587;SDS011;1808;53.596;9.972;2023-03-22T05:48:06;17.15;;;9.10;;
3587;SDS011;1808;53.596;9.972;2023-03-22T05:50:33;17.45;;;10.88;;
3587;SDS011;1808;53.596;9.972;2023-03-22T05:52:59;17.90;;;9.75;;
3587;SDS011;1808;53.596;9.972;2023-03-22T05:55:26;15.85;;;9.73;;
3587;SDS011;1808;53.596;9.972;2023-03-22T05:57:54;16.95;;;8.95;;
3587;SDS011;1808;53.596;9.972;2023-03-22T06:00:20;14.38;;;9.38;;
3587;SDS011;1808;53.596;9.972;2023-03-22T06:02:49;13.23;;;9.35;;
3587;SDS011;1808;53.596;9.972;2023-03-22T06:05:16;14.65;;;8.60;;
3587;SDS011;1808;53.596;9.972;2023-03-22T06:07:43;14.98;;;9.20;;
3587;SDS011;1808;53.596;9.972;2023-03-22T06:10:10;17.08;;;8.80;;
3587;SDS011;1808;53.596;9.972;2023-03-22T06:12:37;16.52;;;7.40;;
3587;SDS011;1808;53.596;9.972;2023-03-22T06:15:04;16.90;;;8.65;;
3587;SDS011;1808;53.596;9.972;2023-03-22T06:17:30;12.55;;;8.38;;
3587;SDS011;1808;53.596;9.972;2023-03-22T06:19:58;16.85;;;8.02;;
3587;SDS011;1808;53.596;9.972;2023-03-22T06:22:24;16.48;;;7.93;;
3587;SDS011;1808;53.596;9.972;2023-03-22T06:24:50;13.55;;;6.85;;
3587;SDS011;1808;53.596;9.972;2023-03-22T06:27:16;13.88;;;7.78;;
3587;SDS011;1808;53.596;9.972;2023-03-22T06:29:43;13.48;;;7.25;;
3587;SDS011;1808;53.596;9.972;2023-03-22T06:32:13;14.50;;;7.50;;
3587;SDS011;1808;53.596;9.972;2023-03-22T06:34:39;13.02;;;6.53;;
3587;SDS011;1808;53.596;9.972;2023-03-22T06:37:07;11.32;;;7.22;;
3587;SDS011;1808;53.596;9.972;2023-03-22T06:39:33;15.60;;;7.65;;
3587;SDS011;1808;53.596;9.972;2023-03-22T06:41:59;13.93;;;7.05;;
3587;SDS011;1808;53.596;9.972;2023-03-22T06:44:25;11.73;;;8.13;;
3587;SDS011;1808;53.596;9.972;2023-03-22T06:46:52;9.75;;;6.50;;
3587;SDS011;1808;53.596;9.972;2023-03-22T06:49:18;17.95;;;9.93;;
3587;SDS011;1808;53.596;9.972;2023-03-22T06:51:45;20.20;;;9.63;;
3587;SDS011;1808;53.596;9.972;2023-03-22T06:54:13;11.57;;;6.53;;
3587;SDS011;1808;53.596;9.972;2023-03-22T06:56:40;13.93;;;6.43;;
3587;SDS011;1808;53.596;9.972;2023-03-22T06:59:07;12.90;;;6.88;;
3587;SDS011;1808;53.596;9.972;2023-03-22T07:01:33;11.90;;;6.40;;
3587;SDS011;1808;53.596;9.972;2023-03-22T07:04:00;13.02;;;7.15;;
3587;SDS011;1808;53.596;9.972;2023-03-22T07:06:26;13.15;;;6.25;;
3587;SDS011;1808;53.596;9.972;2023-03-22T07:08:52;14.43;;;8.27;;
3587;SDS011;1808;53.596;9.972;2023-03-22T07:11:20;11.57;;;6.65;;
3587;SDS011;1808;53.596;9.972;2023-03-22T07:13:46;11.88;;;6.78;;
3587;SDS011;1808;53.596;9.972;2023-03-22T07:16:12;12.65;;;6.88;;
3587;SDS011;1808;53.596;9.972;2023-03-22T07:18:39;12.93;;;7.25;;
3587;SDS011;1808;53.596;9.972;2023-03-22T07:21:05;24.58;;;8.65;;
3587;SDS011;1808;53.596;9.972;2023-03-22T07:23:31;10.75;;;6.60;;
3587;SDS011;1808;53.596;9.972;2023-03-22T07:25:58;13.68;;;7.60;;
3587;SDS011;1808;53.596;9.972;2023-03-22T07:28:26;17.88;;;8.57;;
3587;SDS011;1808;53.596;9.972;2023-03-22T07:30:58;13.75;;;7.45;;
3587;SDS011;1808;53.596;9.972;2023-03-22T07:33:24;16.23;;;8.17;;
3587;SDS011;1808;53.596;9.972;2023-03-22T07:35:50;13.35;;;8.23;;
3587;SDS011;1808;53.596;9.972;2023-03-22T07:38:17;15.73;;;8.80;;
3587;SDS011;1808;53.596;9.972;2023-03-22T07:40:43;13.23;;;8.35;;
3587;SDS011;1808;53.596;9.972;2023-03-22T07:43:09;11.00;;;7.18;;
3587;SDS011;1808;53.596;9.972;2023-03-22T07:45:38;17.17;;;8.77;;
3587;SDS011;1808;53.596;9.972;2023-03-22T07:48:05;14.18;;;8.63;;
3587;SDS011;1808;53.596;9.972;2023-03-22T07:50:33;15.38;;;9.63;;
3587;SDS011;1808;53.596;9.972;2023-03-22T07:52:59;15.57;;;8.80;;
3587;SDS011;1808;53.596;9.972;2023-03-22T07:55:27;17.65;;;10.25;;
3587;SDS011;1808;53.596;9.972;2023-03-22T07:57:54;18.17;;;10.93;;
3587;SDS011;1808;53.596;9.972;2023-03-22T08:00:20;16.85;;;9.57;;
3587;SDS011;1808;53.596;9.972;2023-03-22T08:02:48;19.48;;;11.93;;
3587;SDS011;1808;53.596;9.972;2023-03-22T08:05:14;16.08;;;10.40;;
3587;SDS011;1808;53.596;9.972;2023-03-22T08:07:41;16.50;;;9.23;;
3587;SDS011;1808;53.596;9.972;2023-03-22T08:10:07;15.68;;;9.32;;
3587;SDS011;1808;53.596;9.972;2023-03-22T08:12:33;16.25;;;9.98;;
3587;SDS011;1808;53.596;9.972;2023-03-22T08:15:00;18.23;;;12.13;;
3587;SDS011;1808;53.596;9.972;2023-03-22T08:17:27;18.25;;;10.38;;
3587;SDS011;1808;53.596;9.972;2023-03-22T08:19:55;19.38;;;10.18;;
3587;SDS011;1808;53.596;9.972;2023-03-22T08:22:21;19.08;;;11.32;;
3587;SDS011;1808;53.596;9.972;2023-03-22T08:24:50;18.13;;;10.90;;
3587;SDS011;1808;53.596;9.972;2023-03-22T08:27:16;17.70;;;11.75;;
3587;SDS011;1808;53.596;9.972;2023-03-22T08:29:43;13.65;;;8.80;;
3587;SDS011;1808;53.596;9.972;2023-03-22T08:32:09;17.27;;;9.93;;
3587;SDS011;1808;53.596;9.972;2023-03-22T08:34:36;16.50;;;10.45;;
3587;SDS011;1808;53.596;9.972;2023-03-22T08:37:04;19.05;;;10.95;;
3587;SDS011;1808;53.596;9.972;2023-03-22T08:39:30;20.10;;;10.75;;
3587;SDS011;1808;53.596;9.972;2023-03-22T08:41:57;16.77;;;8.55;;
3587;SDS011;1808;53.596;9.972;2023-03-22T08:44:23;16.15;;;9.10;;
3587;SDS011;1808;53.596;9.972;2023-03-22T08:46:49;16.20;;;9.50;;
3587;SDS011;1808;53.596;9.972;2023-03-22T08:49:16;15.27;;;8.73;;
3587;SDS011;1808;53.596;9.972;2023-03-22T08:51:42;17.15;;;9.63;;
3587;SDS011;1808;53.596;9.972;2023-03-22T08:54:09;18.77;;;9.30;;
3587;SDS011;1808;53.596;9.972;2023-03-22T08:56:35;17.92;;;10.68;;
3587;SDS011;1808;53.596;9.972;2023-03-22T08:59:02;13.85;;;8.60;;
3587;SDS011;1808;53.596;9.972;2023-03-22T09:01:28;14.15;;;8.15;;
3587;SDS011;1808;53.596;9.972;2023-03-22T09:03:54;13.32;;;7.55;;
3587;SDS011;1808;53.596;9.972;2023-03-22T09:06:21;14.35;;;9.52;;
3587;SDS011;1808;53.596;9.972;2023-03-22T09:08:47;11.30;;;7.15;;
3587;SDS011;1808;53.596;9.972;2023-03-22T09:11:17;18.05;;;8.10;;
3587;SDS011;1808;53.596;9.972;2023-03-22T09:13:43;14.73;;;7.35;;
3587;SDS011;1808;53.596;9.972;2023-03-22T09:16:10;13.60;;;7.88;;
3587;SDS011;1808;53.596;9.972;2023-03-22T09:18:37;12.15;;;7.15;;
3587;SDS011;1808;53.596;9.972;2023-03-22T09:21:03;12.15;;;7.32;;
3587;SDS011;1808;53.596;9.972;2023-03-22T09:23:31;14.82;;;6.93;;
3587;SDS011;1808;53.596;9.972;2023-03-22T09:25:58;11.95;;;6.40;;
3587;SDS011;1808;53.596;9.972;2023-03-22T09:28:26;13.45;;;6.57;;
3587;SDS011;1808;53.596;9.972;2023-03-22T09:30:52;12.38;;;7.57;;
3587;SDS011;1808;53.596;9.972;2023-03-22T09:33:19;12.77;;;7.57;;
3587;SDS011;1808;53.596;9.972;2023-03-22T09:35:45;17.85;;;8.55;;
3587;SDS011;1808;53.596;9.972;2023-03-22T09:38:12;19.15;;;8.10;;
3587;SDS011;1808;53.596;9.972;2023-03-22T09:40:42;13.90;;;6.53;;
3587;SDS011;1808;53.596;9.972;2023-03-22T09:43:11;15.60;;;7.53;;
3587;SDS011;1808;53.596;9.972;2023-03-22T09:45:41;12.25;;;6.95;;
3587;SDS011;1808;53.596;9.972;2023-03-22T09:48:11;14.38;;;6.13;;
3587;SDS011;1808;53.596;9.972;2023-03-22T09:50:38;14.45;;;5.90;;
3587;SDS011;1808;53.596;9.972;2023-03-22T09:53:08;12.05;;;5.85;;
3587;SDS011;1808;53.596;9.972;2023-03-22T09:55:38;14.50;;;6.30;;
3587;SDS011;1808;53.596;9.972;2023-03-22T09:58:06;13.35;;;5.40;;
3587;SDS011;1808;53.596;9.972;2023-03-22T10:00:37;11.50;;;5.15;;
3587;SDS011;1808;53.596;9.972;2023-03-22T10:03:10;11.50;;;5.70;;
3587;SDS011;1808;53.596;9.972;2023-03-22T10:05:42;12.77;;;4.95;;
3587;SDS011;1808;53.596;9.972;2023-03-22T10:10:58;8.45;;;5.13;;
3587;SDS011;1808;53.596;9.972;2023-03-22T10:13:26;10.27;;;5.30;;
3587;SDS011;1808;53.596;9.972;2023-03-22T10:15:55;8.27;;;3.90;;
3587;SDS011;1808;53.596;9.972;2023-03-22T10:18:25;10.77;;;4.78;;
3587;SDS011;1808;53.596;9.972;2023-03-22T10:20:54;10.10;;;4.07;;
3587;SDS011;1808;53.596;9.972;2023-03-22T10:23:23;8.70;;;4.03;;
3587;SDS011;1808;53.596;9.972;2023-03-22T10:25:50;11.90;;;5.40;;
3587;SDS011;1808;53.596;9.972;2023-03-22T10:28:18;7.90;;;3.65;;
3587;SDS011;1808;53.596;9.972;2023-03-22T10:30:46;10.50;;;4.85;;
3587;SDS011;1808;53.596;9.972;2023-03-22T10:33:17;11.13;;;3.92;;
3587;SDS011;1808;53.596;9.972;2023-03-22T10:35:47;9.20;;;3.50;;
3587;SDS011;1808;53.596;9.972;2023-03-22T10:38:16;11.82;;;3.47;;
3587;SDS011;1808;53.596;9.972;2023-03-22T10:40:43;9.05;;;4.35;;
3587;SDS011;1808;53.596;9.972;2023-03-22T10:43:13;11.98;;;4.10;;
3587;SDS011;1808;53.596;9.972;2023-03-22T10:45:40;6.75;;;3.95;;
3587;SDS011;1808;53.596;9.972;2023-03-22T10:48:08;7.78;;;3.53;;
3587;SDS011;1808;53.596;9.972;2023-03-22T10:50:36;11.38;;;4.03;;
3587;SDS011;1808;53.596;9.972;2023-03-22T10:53:04;10.25;;;3.22;;
3587;SDS011;1808;53.596;9.972;2023-03-22T10:55:31;8.98;;;3.42;;
3587;SDS011;1808;53.596;9.972;2023-03-22T10:57:59;9.50;;;3.50;;
3587;SDS011;1808;53.596;9.972;2023-03-22T11:00:30;10.55;;;3.65;;
3587;SDS011;1808;53.596;9.972;2023-03-22T11:02:57;6.95;;;3.90;;
3587;SDS011;1808;53.596;9.972;2023-03-22T11:05:24;8.52;;;3.28;;
3587;SDS011;1808;53.596;9.972;2023-03-22T11:07:51;8.55;;;3.50;;
3587;SDS011;1808;53.596;9.972;2023-03-22T11:10:20;10.25;;;3.97;;
3587;SDS011;1808;53.596;9.972;2023-03-22T11:12:48;9.27;;;3.38;;
3587;SDS011;1808;53.596;9.972;2023-03-22T11:15:19;8.85;;;4.20;;
3587;SDS011;1808;53.596;9.972;2023-03-22T11:17:47;8.77;;;4.22;;
3587;SDS011;1808;53.596;9.972;2023-03-22T11:20:13;8.80;;;4.15;;
3587;SDS011;1808;53.596;9.972;2023-03-22T11:22:41;10.02;;;4.25;;
3587;SDS011;1808;53.596;9.972;2023-03-22T11:25:11;9.43;;;4.47;;
3587;SDS011;1808;53.596;9.972;2023-03-22T11:27:47;8.27;;;4.07;;
3587;SDS011;1808;53.596;9.972;2023-03-22T11:30:17;7.30;;;3.30;;
3587;SDS011;1808;53.596;9.972;2023-03-22T11:32:45;9.25;;;3.58;;
3587;SDS011;1808;53.596;9.972;2023-03-22T11:35:12;10.73;;;4.00;;
3587;SDS011;1808;53.596;9.972;2023-03-22T11:37:39;11.65;;;3.95;;
3587;SDS011;1808;53.596;9.972;2023-03-22T11:40:12;6.95;;;4.10;;
3587;SDS011;1808;53.596;9.972;2023-03-22T11:42:39;7.13;;;3.50;;
3587;SDS011;1808;53.596;9.972;2023-03-22T11:45:08;10.93;;;4.10;;
3587;SDS011;1808;53.596;9.972;2023-03-22T11:47:36;12.77;;;3.80;;
3587;SDS011;1808;53.596;9.972;2023-03-22T11:50:03;10.77;;;4.30;;
3587;SDS011;1808;53.596;9.972;2023-03-22T11:52:30;8.02;;;3.60;;
3587;SDS011;1808;53.596;9.972;2023-03-22T11:54:57;7.10;;;4.03;;
3587;SDS011;1808;53.596;9.972;2023-03-22T11:57:25;9.55;;;4.53;;
3587;SDS011;1808;53.596;9.972;2023-03-22T11:59:54;10.25;;;4.80;;
3587;SDS011;1808;53.596;9.972;2023-03-22T12:02:23;6.97;;;4.38;;
3587;SDS011;1808;53.596;9.972;2023-03-22T12:04:52;10.98;;;4.25;;
3587;SDS011;1808;53.596;9.972;2023-03-22T12:07:21;11.55;;;4.63;;
3587;SDS011;1808;53.596;9.972;2023-03-22T12:09:50;10.45;;;4.35;;
3587;SDS011;1808;53.596;9.972;2023-03-22T12:12:18;6.15;;;4.20;;
3587;SDS011;1808;53.596;9.972;2023-03-22T12:14:46;10.48;;;4.55;;
3587;SDS011;1808;53.596;9.972;2023-03-22T12:17:14;8.15;;;5.05;;
3587;SDS011;1808;53.596;9.972;2023-03-22T12:19:46;10.68;;;4.72;;
3587;SDS011;1808;53.596;9.972;2023-03-22T12:22:15;10.35;;;4.72;;
3587;SDS011;1808;53.596;9.972;2023-03-22T12:24:42;12.52;;;5.60;;
3587;SDS011;1808;53.596;9.972;2023-03-22T12:27:11;8.07;;;5.25;;
3587;SDS011;1808;53.596;9.972;2023-03-22T12:29:40;10.52;;;5.30;;
3587;SDS011;1808;53.596;9.972;2023-03-22T12:32:10;12.55;;;5.70;;
3587;SDS011;1808;53.596;9.972;2023-03-22T12:34:40;11.85;;;5.72;;
3587;SDS011;1808;53.596;9.972;2023-03-22T12:37:10;8.00;;;5.38;;
3587;SDS011;1808;53.596;9.972;2023-03-22T12:39:38;9.43;;;5.78;;
3587;SDS011;1808;53.596;9.972;2023-03-22T12:42:09;9.82;;;5.63;;
3587;SDS011;1808;53.596;9.972;2023-03-22T12:44:37;10.40;;;6.53;;
3587;SDS011;1808;53.596;9.972;2023-03-22T12:47:06;11.10;;;6.07;;
3587;SDS011;1808;53.596;9.972;2023-03-22T12:49:37;8.95;;;5.38;;
3587;SDS011;1808;53.596;9.972;2023-03-22T12:52:09;9.25;;;5.65;;
3587;SDS011;1808;53.596;9.972;2023-03-22T12:54:38;10.87;;;5.17;;
3587;SDS011;1808;53.596;9.972;2023-03-22T12:57:06;11.55;;;5.63;;
3587;SDS011;1808;53.596;9.972;2023-03-22T12:59:33;8.65;;;5.90;;
3587;SDS011;1808;53.596;9.972;2023-03-22T13:02:02;8.60;;;5.38;;
3587;SDS011;1808;53.596;9.972;2023-03-22T13:04:31;10.07;;;5.78;;
3587;SDS011;1808;53.596;9.972;2023-03-22T13:07:07;10.02;;;5.90;;
3587;SDS011;1808;53.596;9.972;2023-03-22T13:09:39;12.18;;;6.18;;
3587;SDS011;1808;53.596;9.972;2023-03-22T13:12:27;14.02;;;7.22;;
3587;SDS011;1808;53.596;9.972;2023-03-22T13:14:54;11.23;;;6.97;;
3587;SDS011;1808;53.596;9.972;2023-03-22T13:17:31;10.13;;;7.22;;
3587;SDS011;1808;53.596;9.972;2023-03-22T13:19:59;15.65;;;8.65;;
3587;SDS011;1808;53.596;9.972;2023-03-22T13:22:56;12.70;;;8.32;;
3587;SDS011;1808;53.596;9.972;2023-03-22T13:25:26;11.85;;;8.95;;
3587;SDS011;1808;53.596;9.972;2023-03-22T13:27:55;13.75;;;9.40;;
3587;SDS011;1808;53.596;9.972;2023-03-22T13:30:23;13.80;;;8.68;;
3587;SDS011;1808;53.596;9.972;2023-03-22T13:32:50;13.07;;;8.90;;
3587;SDS011;1808;53.596;9.972;2023-03-22T13:35:18;11.43;;;9.32;;
3587;SDS011;1808;53.596;9.972;2023-03-22T13:37:47;11.90;;;9.43;;
3587;SDS011;1808;53.596;9.972;2023-03-22T13:40:20;15.05;;;10.27;;
3587;SDS011;1808;53.596;9.972;2023-03-22T13:42:51;16.27;;;8.65;;
3587;SDS011;1808;53.596;9.972;2023-03-22T13:45:28;17.48;;;11.70;;
3587;SDS011;1808;53.596;9.972;2023-03-22T13:48:01;14.80;;;8.48;;
3587;SDS011;1808;53.596;9.972;2023-03-22T13:50:28;12.85;;;7.72;;
3587;SDS011;1808;53.596;9.972;2023-03-22T13:52:56;16.92;;;8.73;;
3587;SDS011;1808;53.596;9.972;2023-03-22T13:55:34;11.50;;;7.53;;
3587;SDS011;1808;53.596;9.972;2023-03-22T13:58:01;10.85;;;6.50;;
3587;SDS011;1808;53.596;9.972;2023-03-22T14:03:25;10.45;;;5.82;;
3587;SDS011;1808;53.596;9.972;2023-03-22T14:05:56;19.65;;;8.27;;
3587;SDS011;1808;53.596;9.972;2023-03-22T14:08:24;12.30;;;6.20;;
3587;SDS011;1808;53.596;9.972;2023-03-22T14:10:54;11.57;;;6.22;;
3587;SDS011;1808;53.596;9.972;2023-03-22T14:13:25;13.07;;;6.00;;
3587;SDS011;1808;53.596;9.972;2023-03-22T14:15:53;10.25;;;5.38;;
3587;SDS011;1808;53.596;9.972;2023-03-22T14:18:23;12.20;;;5.07;;
3587;SDS011;1808;53.596;9.972;2023-03-22T14:20:51;9.13;;;3.80;;
3587;SDS011;1808;53.596;9.972;2023-03-22T14:23:20;12.27;;;5.25;;
3587;SDS011;1808;53.596;9.972;2023-03-22T14:25:47;12.98;;;5.03;;
3587;SDS011;1808;53.596;9.972;2023-03-22T14:28:17;10.05;;;4.07;;
3587;SDS011;1808;53.596;9.972;2023-03-22T14:30:43;9.55;;;5.13;;
3587;SDS011;1808;53.596;9.972;2023-03-22T14:33:11;10.73;;;5.03;;
3587;SDS011;1808;53.596;9.972;2023-03-22T14:35:39;12.32;;;5.00;;
3587;SDS011;1808;53.596;9.972;2023-03-22T14:38:07;9.95;;;4.15;;
3587;SDS011;1808;53.596;9.972;2023-03-22T14:40:35;10.63;;;5.20;;
3587;SDS011;1808;53.596;9.972;2023-03-22T14:43:15;10.40;;;4.28;;
3587;SDS011;1808;53.596;9.972;2023-03-22T14:45:46;10.32;;;4.63;;
3587;SDS011;1808;53.596;9.972;2023-03-22T14:48:13;8.52;;;4.30;;
3587;SDS011;1808;53.596;9.972;2023-03-22T14:50:44;8.15;;;5.10;;
3587;SDS011;1808;53.596;9.972;2023-03-22T14:53:11;11.63;;;5.47;;
3587;SDS011;1808;53.596;9.972;2023-03-22T14:55:37;13.98;;;4.82;;
3587;SDS011;1808;53.596;9.972;2023-03-22T14:58:05;11.73;;;5.75;;
3587;SDS011;1808;53.596;9.972;2023-03-22T15:00:32;12.40;;;5.90;;
3587;SDS011;1808;53.596;9.972;2023-03-22T15:03:00;12.23;;;5.72;;
3587;SDS011;1808;53.596;9.972;2023-03-22T15:05:29;11.05;;;6.85;;
3587;SDS011;1808;53.596;9.972;2023-03-22T15:08:06;11.02;;;5.80;;
3587;SDS011;1808;53.596;9.972;2023-03-22T15:10:32;13.50;;;6.88;;
3587;SDS011;1808;53.596;9.972;2023-03-22T15:12:59;14.18;;;7.38;;
3587;SDS011;1808;53.596;9.972;2023-03-22T15:15:27;10.45;;;5.97;;
3587;SDS011;1808;53.596;9.972;2023-03-22T15:17:54;11.77;;;6.53;;
3587;SDS011;1808;53.596;9.972;2023-03-22T15:20:22;16.67;;;6.28;;